Time;durP1;ratioP1;P1;durP2;ratioP2;P2;SDS_P1;SDS_P2;PMS_P1;PMS_P2;Temp;Humidity;BMP_temperature;BMP_pressure;BME280_temperature;BME280_humidity;BME280_pressure;Samples;Min_cycle;Max_cycle;Signal;HPM_P1;HPM_P2
2023/09/22 00:01:47;;;;;;;15.05;7.32;;;14.60;99.90;;;;;;5072159;28;20542;-48
2023/09/22 00:04:13;;;;;;;15.68;7.45;;;14.60;99.90;;;;;;5073642;28;20127;-51
2023/09/22 00:06:38;;;;;;;13.10;7.38;;;14.60;99.90;;;;;;5073870;28;20029;-51
2023/09/22 00:09:07;;;;;;;11.55;6.38;;;14.60;99.90;;;;;;5074031;28;20027;-48
2023/09/22 00:11:33;;;;;;;18.25;6.80;;;14.60;99.90;;;;;;5073993;28;20031;-51
2023/09/22 00:13:59;;;;;;;12.85;7.40;;;14.60;99.90;;;;;;5073659;28;20420;-51
2023/09/22 00:16:24;;;;;;;14.52;7.15;;;14.60;99.90;;;;;;5073590;28;20408;-50
2023/09/22 00:18:50;;;;;;;10.07;5.85;;;14.60;99.90;;;;;;5073617;28;20075;-51
2023/09/22 00:21:16;;;;;;;12.82;6.75;;;14.60;99.90;;;;;;5073804;28;20557;-50
2023/09/22 00:23:42;;;;;;;12.82;6.03;;;14.60;99.90;;;;;;5073796;28;20051;-51
2023/09/22 00:26:07;;;;;;;10.20;6.10;;;14.70;99.90;;;;;;5073276;28;20107;-51
2023/09/22 00:28:33;;;;;;;16.17;6.63;;;14.70;99.90;;;;;;5073444;28;20028;-51
2023/09/22 00:30:59;;;;;;;12.32;5.72;;;14.70;99.90;;;;;;5073356;28;20028;-51
2023/09/22 00:33:25;;;;;;;10.02;5.75;;;14.60;99.90;;;;;;5073348;28;20036;-51
2023/09/22 00:35:51;;;;;;;12.65;5.68;;;14.60;99.90;;;;;;5073319;28;20397;-51
2023/09/22 00:38:17;;;;;;;10.80;5.88;;;14.60;99.90;;;;;;5073529;28;20499;-46
2023/09/22 00:40:43;;;;;;;10.70;5.75;;;14.70;99.90;;;;;;5073240;28;20033;-52
2023/09/22 00:43:10;;;;;;;9.45;4.70;;;14.60;99.90;;;;;;5073117;28;20035;-45
2023/09/22 00:45:44;;;;;;;11.45;5.30;;;14.60;99.90;;;;;;5071831;28;20033;-50
2023/09/22 00:48:10;;;;;;;15.48;5.40;;;14.70;99.90;;;;;;5073089;28;20020;-51
2023/09/22 00:50:37;;;;;;;7.95;5.18;;;14.70;99.90;;;;;;5073137;28;20016;-50
2023/09/22 00:53:04;;;;;;;10.93;6.15;;;14.70;99.90;;;;;;5073034;28;20064;-51
2023/09/22 00:55:30;;;;;;;13.87;6.90;;;14.70;99.90;;;;;;5072714;28;20516;-50
2023/09/22 00:57:56;;;;;;;16.35;6.13;;;14.70;99.90;;;;;;5072920;28;20064;-56
2023/09/22 01:00:22;;;;;;;16.90;6.85;;;14.70;99.90;;;;;;5073068;28;20052;-50
2023/09/22 01:02:48;;;;;;;9.88;5.53;;;14.70;99.90;;;;;;5072977;28;20052;-49
2023/09/22 01:05:16;;;;;;;15.48;7.70;;;14.70;99.90;;;;;;5072498;28;20064;-48
2023/09/22 01:07:41;;;;;;;18.70;9.13;;;14.70;99.90;;;;;;5072750;28;20485;-50
2023/09/22 01:10:11;;;;;;;14.82;8.23;;;14.70;99.90;;;;;;5072868;28;20070;-48
2023/09/22 01:12:37;;;;;;;16.58;8.27;;;14.60;99.90;;;;;;5072809;28;20032;-50
2023/09/22 01:15:03;;;;;;;20.33;8.98;;;14.60;99.90;;;;;;5072646;28;20051;-50
2023/09/22 01:17:30;;;;;;;23.13;10.65;;;14.60;99.90;;;;;;5072843;28;20044;-51
2023/09/22 01:19:56;;;;;;;17.42;8.98;;;14.50;99.90;;;;;;5073093;28;20397;-51
2023/09/22 01:22:21;;;;;;;18.70;9.50;;;14.50;99.90;;;;;;5072669;28;20032;-51
2023/09/22 01:24:47;;;;;;;23.23;9.60;;;14.50;99.90;;;;;;5072734;28;20024;-51
2023/09/22 01:27:13;;;;;;;19.13;9.98;;;14.40;99.90;;;;;;5072776;28;20035;-55
2023/09/22 01:29:40;;;;;;;20.45;9.23;;;14.40;99.90;;;;;;5072734;28;20025;-45
2023/09/22 01:32:09;;;;;;;24.00;11.05;;;14.40;99.90;;;;;;5072687;28;20040;-50
2023/09/22 01:34:35;;;;;;;20.50;9.98;;;14.40;99.90;;;;;;5072703;28;20032;-50
2023/09/22 01:37:07;;;;;;;23.42;10.10;;;14.40;99.90;;;;;;5072637;28;20036;-52
2023/09/22 01:39:33;;;;;;;22.80;9.77;;;14.40;99.90;;;;;;5071338;28;20031;-51
2023/09/22 01:41:59;;;;;;;19.45;9.57;;;14.40;99.90;;;;;;5071231;28;20029;-51
2023/09/22 01:44:25;;;;;;;22.92;10.65;;;14.30;99.90;;;;;;5072765;28;20044;-51
2023/09/22 01:46:51;;;;;;;24.45;10.85;;;14.40;99.90;;;;;;5072440;28;20074;-52
2023/09/22 01:49:16;;;;;;;24.23;11.25;;;14.30;99.90;;;;;;5072781;28;20111;-50
2023/09/22 01:51:42;;;;;;;21.15;11.05;;;14.30;99.90;;;;;;5072489;28;20044;-51
2023/09/22 01:54:08;;;;;;;21.55;10.85;;;14.30;99.90;;;;;;5072321;28;20051;-51
2023/09/22 01:56:34;;;;;;;21.85;10.80;;;14.20;99.90;;;;;;5071888;28;20048;-51
2023/09/22 01:59:00;;;;;;;23.63;10.43;;;14.30;99.90;;;;;;5072675;28;20100;-50
2023/09/22 02:01:25;;;;;;;26.50;11.88;;;14.20;99.90;;;;;;5072566;28;20090;-35
2023/09/22 02:03:54;;;;;;;25.50;11.55;;;14.20;99.90;;;;;;5071387;28;20081;-43
2023/09/22 02:06:19;;;;;;;28.30;11.65;;;14.20;99.90;;;;;;5072350;28;20044;-36
2023/09/22 02:08:45;;;;;;;23.35;10.05;;;14.20;99.90;;;;;;5072274;28;20029;-37
2023/09/22 02:11:11;;;;;;;26.67;10.65;;;14.20;99.90;;;;;;5072528;28;20184;-37
2023/09/22 02:13:38;;;;;;;21.83;9.55;;;14.20;99.90;;;;;;5072236;28;20024;-37
2023/09/22 02:16:04;;;;;;;27.35;11.27;;;14.20;99.90;;;;;;5072103;28;20032;-36
2023/09/22 02:18:29;;;;;;;25.40;11.32;;;14.20;99.90;;;;;;5072219;28;20089;-36
2023/09/22 02:20:56;;;;;;;24.58;11.50;;;14.20;99.90;;;;;;5072461;28;20533;-36
2023/09/22 02:23:22;;;;;;;23.27;10.90;;;14.20;99.90;;;;;;5070766;28;20029;-49
2023/09/22 02:25:47;;;;;;;20.42;9.27;;;14.20;99.90;;;;;;5073200;28;20020;-52
2023/09/22 02:28:13;;;;;;;26.17;10.93;;;14.10;99.90;;;;;;5074487;28;20043;-51
2023/09/22 02:30:39;;;;;;;26.52;11.35;;;14.20;99.90;;;;;;5075765;28;20033;-52
2023/09/22 02:33:05;;;;;;;22.88;9.80;;;14.20;99.90;;;;;;5075754;28;20028;-52
2023/09/22 02:35:31;;;;;;;25.30;10.20;;;14.10;99.90;;;;;;5075634;28;20154;-56
2023/09/22 02:37:57;;;;;;;24.08;10.15;;;14.10;99.90;;;;;;5075843;28;20389;-52
2023/09/22 02:40:22;;;;;;;27.20;9.85;;;14.10;99.90;;;;;;5075508;28;20078;-53
2023/09/22 02:42:48;;;;;;;21.67;8.70;;;14.10;99.90;;;;;;5075387;28;20362;-51
2023/09/22 02:45:14;;;;;;;19.58;8.82;;;14.10;99.90;;;;;;5075771;28;20500;-52
2023/09/22 02:47:41;;;;;;;35.63;9.70;;;14.10;99.90;;;;;;5075433;28;20361;-51
2023/09/22 02:50:11;;;;;;;19.95;8.68;;;14.10;99.90;;;;;;5075669;28;20115;-52
2023/09/22 02:52:42;;;;;;;18.45;8.02;;;14.10;99.90;;;;;;5075636;28;20040;-53
2023/09/22 02:55:09;;;;;;;25.10;8.90;;;14.10;99.90;;;;;;5075343;28;20048;-52
2023/09/22 02:57:38;;;;;;;21.40;8.85;;;14.20;99.90;;;;;;5075118;28;20169;-50
2023/09/22 03:00:11;;;;;;;19.45;8.75;;;14.20;99.90;;;;;;5075221;28;20099;-50
2023/09/22 03:02:38;;;;;;;18.95;8.50;;;14.20;99.90;;;;;;5075471;28;20142;-52
2023/09/22 03:05:07;;;;;;;20.60;9.18;;;14.20;99.90;;;;;;5075189;28;20477;-51
2023/09/22 03:07:33;;;;;;;18.30;8.38;;;14.20;99.90;;;;;;5075142;28;20075;-50
2023/09/22 03:09:58;;;;;;;16.10;8.07;;;14.20;99.90;;;;;;5074971;28;20471;-50
2023/09/22 03:12:24;;;;;;;19.65;8.27;;;14.10;99.90;;;;;;5074949;28;20033;-55
2023/09/22 03:14:50;;;;;;;21.35;8.85;;;14.10;99.90;;;;;;5074876;28;20105;-53
2023/09/22 03:17:15;;;;;;;19.60;8.07;;;14.10;99.90;;;;;;5074850;28;20427;-50
2023/09/22 03:19:41;;;;;;;16.38;7.22;;;14.10;99.90;;;;;;5075137;28;20056;-52
2023/09/22 03:22:07;;;;;;;17.33;7.22;;;14.10;99.90;;;;;;5074696;28;20032;-52
2023/09/22 03:24:32;;;;;;;14.48;7.03;;;14.10;99.90;;;;;;5074581;28;20505;-53
2023/09/22 03:26:58;;;;;;;17.23;7.05;;;14.10;99.90;;;;;;5074512;28;20099;-52
2023/09/22 03:29:24;;;;;;;21.20;7.25;;;14.10;99.90;;;;;;5074784;28;20468;-52
2023/09/22 03:31:50;;;;;;;18.58;7.45;;;14.10;99.90;;;;;;5074583;28;20027;-52
2023/09/22 03:34:15;;;;;;;16.95;6.90;;;14.10;99.90;;;;;;5074500;28;20028;-51
2023/09/22 03:36:41;;;;;;;13.85;6.85;;;14.10;99.90;;;;;;5073794;28;20546;-51
2023/09/22 03:39:12;;;;;;;19.17;7.53;;;14.10;99.90;;;;;;5074343;28;20091;-58
2023/09/22 03:41:38;;;;;;;14.45;6.95;;;14.10;99.90;;;;;;5074667;28;20036;-52
2023/09/22 03:44:04;;;;;;;18.30;7.22;;;14.10;99.90;;;;;;5074329;28;20016;-47
2023/09/22 03:46:30;;;;;;;18.80;7.22;;;14.00;99.90;;;;;;5074257;28;20032;-50
2023/09/22 03:48:56;;;;;;;21.73;6.97;;;14.00;99.90;;;;;;5074287;28;20473;-53
2023/09/22 03:51:21;;;;;;;23.33;6.90;;;14.00;99.90;;;;;;5074186;28;20024;-52
2023/09/22 03:56:31;;;;;;;15.95;6.10;;;14.00;99.90;;;;;;5074020;28;20055;-52
2023/09/22 03:58:57;;;;;;;14.15;6.63;;;14.00;99.90;;;;;;5074082;28;20016;-51
2023/09/22 04:01:23;;;;;;;10.55;5.65;;;14.00;99.90;;;;;;5073934;28;20111;-37
2023/09/22 04:03:48;;;;;;;15.45;6.38;;;14.00;99.90;;;;;;5073972;28;20032;-38
2023/09/22 04:06:14;;;;;;;15.13;5.95;;;14.00;99.90;;;;;;5073893;28;20024;-37
2023/09/22 04:08:39;;;;;;;17.20;5.95;;;14.10;99.90;;;;;;5073825;28;20566;-36
2023/09/22 04:11:06;;;;;;;13.68;5.80;;;14.10;99.90;;;;;;5073781;28;20025;-38
2023/09/22 04:13:32;;;;;;;11.20;5.80;;;14.10;99.90;;;;;;5073802;28;20020;-37
2023/09/22 04:16:01;;;;;;;13.25;5.25;;;14.10;99.90;;;;;;5073603;28;20353;-37
2023/09/22 04:18:29;;;;;;;13.07;5.65;;;14.10;99.90;;;;;;5073613;28;20108;-38
2023/09/22 04:21:00;;;;;;;;;;;14.10;99.90;;;;;;5074139;28;20028;-37
2023/09/22 04:23:27;;;;;;;13.75;5.18;;;14.10;99.90;;;;;;5073763;28;19916;-37
2023/09/22 04:25:54;;;;;;;10.52;5.22;;;14.10;99.90;;;;;;5073437;28;20103;-37
2023/09/22 04:28:23;;;;;;;12.32;5.93;;;14.10;99.90;;;;;;5072262;28;20035;-37
2023/09/22 04:30:49;;;;;;;12.20;5.40;;;14.10;99.90;;;;;;5072128;28;20150;-36
2023/09/22 04:33:15;;;;;;;14.20;5.57;;;14.10;99.90;;;;;;5073691;28;20025;-37
2023/09/22 04:35:41;;;;;;;10.63;5.00;;;14.10;99.90;;;;;;5073421;28;20485;-39
2023/09/22 04:38:09;;;;;;;11.07;4.63;;;14.10;99.90;;;;;;5073266;28;20021;-36
2023/09/22 04:40:36;;;;;;;13.02;4.80;;;14.10;99.90;;;;;;5073296;28;20081;-37
2023/09/22 04:43:05;;;;;;;10.93;4.80;;;14.10;99.90;;;;;;5073187;28;20062;-37
2023/09/22 04:45:30;;;;;;;12.52;5.20;;;14.10;99.90;;;;;;5073185;28;20038;-38
2023/09/22 04:47:57;;;;;;;9.30;5.25;;;14.10;99.90;;;;;;5072911;28;20020;-38
2023/09/22 04:50:23;;;;;;;9.05;5.00;;;14.10;99.90;;;;;;5073037;28;20102;-38
2023/09/22 04:52:49;;;;;;;12.27;5.63;;;14.10;99.90;;;;;;5073095;28;20512;-37
2023/09/22 04:55:16;;;;;;;10.57;4.82;;;14.20;99.90;;;;;;5073359;28;20101;-38
2023/09/22 04:57:42;;;;;;;11.23;5.10;;;14.20;99.90;;;;;;5072854;28;20051;-39
2023/09/22 05:00:15;;;;;;;17.95;5.75;;;14.10;99.90;;;;;;5073052;28;20024;-38
2023/09/22 05:02:41;;;;;;;13.73;4.72;;;14.20;99.90;;;;;;5072936;28;20036;-38
2023/09/22 05:05:07;;;;;;;8.65;4.78;;;14.10;99.90;;;;;;5072938;28;20025;-37
2023/09/22 05:07:34;;;;;;;7.07;4.68;;;14.20;99.90;;;;;;5072941;28;20066;-38
2023/09/22 05:09:59;;;;;;;12.88;5.22;;;14.10;99.90;;;;;;5071679;28;20055;-37
2023/09/22 05:12:25;;;;;;;11.25;5.00;;;14.10;99.90;;;;;;5072804;28;20048;-37
2023/09/22 05:14:52;;;;;;;10.93;4.90;;;14.10;99.90;;;;;;5072738;28;20028;-37
2023/09/22 05:17:18;;;;;;;8.40;5.40;;;14.00;99.90;;;;;;5072877;28;20028;-37
2023/09/22 05:19:44;;;;;;;10.93;5.90;;;14.10;99.90;;;;;;5072750;28;20032;-40
2023/09/22 05:22:10;;;;;;;15.38;5.25;;;14.10;99.90;;;;;;5072920;28;20028;-37
2023/09/22 05:24:36;;;;;;;8.63;4.38;;;14.10;99.90;;;;;;5071392;28;20021;-38
2023/09/22 05:27:04;;;;;;;7.90;4.85;;;14.10;99.90;;;;;;5072941;28;20385;-41
2023/09/22 05:29:29;;;;;;;13.73;5.40;;;14.10;99.90;;;;;;5072640;28;20016;-38
2023/09/22 05:31:55;;;;;;;14.32;5.20;;;14.10;99.90;;;;;;5072947;28;20029;-37
2023/09/22 05:34:21;;;;;;;12.52;4.97;;;14.10;99.90;;;;;;5072569;28;20032;-40
2023/09/22 05:36:46;;;;;;;11.85;5.05;;;14.10;99.90;;;;;;5072569;28;20024;-37
2023/09/22 05:39:14;;;;;;;7.72;4.72;;;14.00;99.90;;;;;;5072630;28;20523;-40
2023/09/22 05:41:40;;;;;;;;;;;14.10;99.90;;;;;;5073232;28;20032;-53
2023/09/22 05:44:07;;;;;;;9.90;4.45;;;14.10;99.90;;;;;;5072523;28;20281;-50
2023/09/22 05:46:33;;;;;;;9.55;4.70;;;14.10;99.90;;;;;;5072776;28;20074;-52
2023/09/22 05:48:58;;;;;;;8.65;4.30;;;14.10;99.90;;;;;;5072528;28;20056;-52
2023/09/22 05:51:24;;;;;;;9.98;4.75;;;14.10;99.90;;;;;;5072471;28;20056;-52
2023/09/22 05:53:53;;;;;;;9.35;4.95;;;14.10;99.90;;;;;;5072500;28;20032;-46
2023/09/22 05:56:18;;;;;;;13.75;4.80;;;14.10;99.90;;;;;;5072170;28;20049;-53
2023/09/22 05:58:44;;;;;;;12.10;4.10;;;14.00;99.90;;;;;;5072443;28;20098;-53
2023/09/22 06:01:11;;;;;;;11.55;3.95;;;14.00;99.90;;;;;;5074521;28;20032;-49
2023/09/22 06:03:38;;;;;;;11.95;4.07;;;14.00;99.90;;;;;;5076263;28;20439;-45
2023/09/22 06:06:15;;;;;;;10.85;4.65;;;14.00;99.90;;;;;;5076256;28;20021;-38
2023/09/22 06:08:45;;;;;;;5.82;4.25;;;14.00;99.90;;;;;;5076282;28;20029;-39
2023/09/22 06:11:11;;;;;;;9.88;4.05;;;14.10;99.90;;;;;;5076469;28;20362;-48
2023/09/22 06:13:38;;;;;;;9.05;3.30;;;14.00;99.90;;;;;;5074839;28;20405;-51
2023/09/22 06:16:24;;;;;;;5.05;3.35;;;14.00;99.90;;;;;;5076283;28;20508;-51
2023/09/22 06:18:50;;;;;;;6.00;3.25;;;14.10;99.90;;;;;;5074634;28;20492;-52
2023/09/22 06:21:15;;;;;;;5.13;3.55;;;14.10;99.90;;;;;;5075896;28;20035;-51
2023/09/22 06:23:41;;;;;;;8.93;3.70;;;14.10;99.90;;;;;;5075837;28;20064;-52
2023/09/22 06:26:10;;;;;;;5.57;3.08;;;14.20;99.90;;;;;;5075697;28;20100;-49
2023/09/22 06:28:37;;;;;;;7.68;3.35;;;14.20;99.90;;;;;;5076075;28;20024;-51
2023/09/22 06:31:04;;;;;;;7.97;3.75;;;14.20;99.90;;;;;;5076049;28;20074;-53
2023/09/22 06:33:30;;;;;;;11.25;3.05;;;14.10;99.90;;;;;;5075695;28;20489;-48
2023/09/22 06:36:03;;;;;;;6.40;2.85;;;14.10;99.90;;;;;;5075734;28;20031;-51
2023/09/22 06:38:33;;;;;;;7.32;2.92;;;14.20;99.90;;;;;;5075759;28;20029;-51
2023/09/22 06:41:03;;;;;;;4.32;3.17;;;14.20;99.90;;;;;;5075521;28;20028;-50
2023/09/22 06:43:29;;;;;;;5.68;2.88;;;14.20;99.90;;;;;;5075427;28;20119;-51
2023/09/22 06:45:58;;;;;;;6.97;2.93;;;14.30;99.90;;;;;;5075569;28;20107;-50
2023/09/22 06:48:29;;;;;;;12.77;2.65;;;14.30;99.90;;;;;;5075770;28;20032;-51
2023/09/22 06:50:57;;;;;;;7.63;3.08;;;14.30;99.90;;;;;;5075460;28;20035;-51
2023/09/22 06:53:23;;;;;;;;;;;14.30;99.90;;;;;;5074752;28;20027;-50
2023/09/22 06:55:49;;;;;;;2.75;2.47;;;14.30;99.90;;;;;;5075187;28;20280;-53
2023/09/22 06:58:14;;;;;;;5.35;2.40;;;14.30;99.90;;;;;;5075612;28;20033;-48
2023/09/22 07:00:40;;;;;;;7.32;3.75;;;14.30;99.90;;;;;;5075549;28;20024;-36
2023/09/22 07:03:06;;;;;;;4.50;2.90;;;14.20;99.90;;;;;;5075049;28;20025;-37
2023/09/22 07:05:32;;;;;;;2.35;2.15;;;14.20;99.90;;;;;;5075158;28;20031;-51
2023/09/22 07:07:58;;;;;;;6.25;2.22;;;14.30;99.90;;;;;;5075360;28;20078;-52
2023/09/22 07:10:24;;;;;;;4.65;2.20;;;14.30;99.90;;;;;;5075293;28;20572;-53
2023/09/22 07:12:50;;;;;;;4.65;2.25;;;14.40;99.90;;;;;;5075034;28;20029;-50
2023/09/22 07:15:17;;;;;;;6.22;2.63;;;14.40;99.90;;;;;;5074828;28;20048;-53
2023/09/22 07:17:44;;;;;;;2.40;2.10;;;14.40;99.90;;;;;;5074958;28;20043;-52
2023/09/22 07:20:13;;;;;;;3.25;1.85;;;14.40;99.90;;;;;;5074911;28;20039;-50
2023/09/22 07:22:38;;;;;;;4.53;2.47;;;14.40;99.90;;;;;;5075053;28;20033;-45
2023/09/22 07:25:04;;;;;;;2.40;2.00;;;14.40;99.90;;;;;;5074683;28;20103;-42
2023/09/22 07:27:30;;;;;;;6.82;1.67;;;14.50;99.90;;;;;;5074728;28;20063;-42
2023/09/22 07:29:55;;;;;;;2.85;1.85;;;14.50;99.90;;;;;;5074655;28;20027;-37
2023/09/22 07:32:21;;;;;;;4.50;1.85;;;14.70;99.90;;;;;;5074608;28;20504;-38
2023/09/22 07:34:50;;;;;;;4.28;2.30;;;14.90;99.90;;;;;;5074558;28;20033;-38
2023/09/22 07:37:16;;;;;;;3.83;2.22;;;15.00;99.90;;;;;;5074552;28;20039;-39
2023/09/22 07:39:42;;;;;;;4.05;1.75;;;15.00;99.90;;;;;;5074467;28;20025;-37
2023/09/22 07:42:09;;;;;;;6.10;1.80;;;15.10;99.90;;;;;;5074276;28;20032;-37
2023/09/22 07:44:38;;;;;;;4.63;2.22;;;15.20;99.90;;;;;;5074417;28;20024;-45
2023/09/22 07:47:10;;;;;;;4.00;1.85;;;15.30;99.90;;;;;;5074284;28;20103;-39
2023/09/22 07:49:43;;;;;;;1.70;1.60;;;15.40;99.90;;;;;;5074584;28;20109;-39
2023/09/22 07:52:10;;;;;;;3.08;1.85;;;15.40;99.90;;;;;;5074502;28;20116;-37
2023/09/22 07:54:36;;;;;;;3.35;1.58;;;15.30;99.90;;;;;;5073030;28;20493;-54
2023/09/22 07:57:02;;;;;;;3.38;1.70;;;15.30;99.90;;;;;;5073959;28;20068;-51
2023/09/22 07:59:31;;;;;;;4.60;1.50;;;15.30;99.90;;;;;;5074126;28;20438;-53
2023/09/22 08:02:03;;;;;;;1.30;1.23;;;15.20;99.90;;;;;;5074169;28;20032;-51
2023/09/22 08:04:29;;;;;;;1.15;1.08;;;15.20;99.90;;;;;;5074553;28;20377;-53
2023/09/22 08:06:55;;;;;;;2.20;1.50;;;15.20;99.90;;;;;;5074298;28;20539;-51
2023/09/22 08:09:21;;;;;;;2.53;1.20;;;15.20;99.90;;;;;;5073846;28;20033;-53
2023/09/22 08:11:47;;;;;;;2.40;1.35;;;15.20;99.90;;;;;;5073773;28;20031;-51
2023/09/22 08:14:13;;;;;;;3.70;1.40;;;15.20;99.90;;;;;;5073940;28;20434;-38
2023/09/22 08:16:39;;;;;;;1.13;0.90;;;15.20;99.90;;;;;;5072462;28;20017;-38
2023/09/22 08:19:10;;;;;;;5.82;0.95;;;15.30;99.90;;;;;;5073745;28;20031;-37
2023/09/22 08:21:37;;;;;;;1.70;0.90;;;15.50;99.90;;;;;;5073575;28;20107;-36
2023/09/22 08:24:04;;;;;;;3.03;1.35;;;15.60;99.90;;;;;;5073069;28;20480;-37
2023/09/22 08:26:30;;;;;;;1.20;1.10;;;15.70;99.90;;;;;;5072295;28;20036;-37
2023/09/22 08:28:57;;;;;;;1.50;1.33;;;15.70;99.90;;;;;;5073786;28;20481;-39
2023/09/22 08:31:25;;;;;;;1.13;1.02;;;15.70;99.90;;;;;;5073515;28;20458;-36
2023/09/22 08:33:51;;;;;;;1.20;1.10;;;15.80;99.90;;;;;;5073481;28;20056;-38
2023/09/22 08:36:17;;;;;;;1.00;1.00;;;15.70;99.90;;;;;;5073370;28;20489;-36
2023/09/22 08:38:43;;;;;;;2.45;1.30;;;15.70;99.90;;;;;;5073381;28;20056;-52
2023/09/22 08:41:08;;;;;;;1.10;1.10;;;15.50;99.90;;;;;;5073592;28;20397;-53
2023/09/22 08:43:35;;;;;;;1.30;1.20;;;15.50;99.90;;;;;;5073192;28;20496;-52
2023/09/22 08:46:01;;;;;;;1.23;1.10;;;15.60;99.90;;;;;;5073222;28;20025;-53
2023/09/22 08:48:28;;;;;;;2.80;1.73;;;15.70;99.90;;;;;;5073166;28;20082;-52
2023/09/22 08:50:57;;;;;;;1.58;1.23;;;15.70;99.90;;;;;;5073096;28;20021;-51
2023/09/22 08:53:22;;;;;;;1.10;1.10;;;15.60;99.90;;;;;;5073327;28;20111;-53
2023/09/22 08:55:51;;;;;;;2.60;1.45;;;15.70;99.90;;;;;;5072969;28;20072;-55
2023/09/22 08:58:19;;;;;;;4.43;1.63;;;15.70;99.90;;;;;;5073070;28;20032;-52
2023/09/22 09:00:54;;;;;;;3.55;2.15;;;15.60;99.90;;;;;;5073054;28;20074;-54
2023/09/22 09:03:20;;;;;;;1.40;1.30;;;15.60;99.90;;;;;;5072999;28;20382;-53
2023/09/22 09:05:47;;;;;;;2.95;1.40;;;15.60;99.90;;;;;;5073017;28;20415;-54
2023/09/22 09:08:18;;;;;;;1.40;1.30;;;15.60;99.90;;;;;;5071698;28;20048;-54
2023/09/22 09:10:46;;;;;;;1.85;1.75;;;15.70;99.90;;;;;;5072949;28;20055;-50
2023/09/22 09:13:20;;;;;;;3.67;1.42;;;15.70;99.90;;;;;;5072858;28;20028;-54
2023/09/22 09:15:53;;;;;;;2.70;1.50;;;15.70;99.90;;;;;;5073017;28;20434;-52
2023/09/22 09:18:21;;;;;;;1.60;1.50;;;15.80;99.90;;;;;;5072922;28;20132;-52
2023/09/22 09:20:48;;;;;;;1.63;1.52;;;15.90;99.90;;;;;;5072858;28;20064;-53
2023/09/22 09:23:16;;;;;;;1.60;1.50;;;15.90;99.90;;;;;;5072748;28;20032;-54
2023/09/22 09:25:47;;;;;;;1.48;1.38;;;16.10;99.90;;;;;;5073233;28;20074;-51
2023/09/22 09:28:15;;;;;;;2.10;1.45;;;16.20;99.90;;;;;;5072738;28;20020;-52
2023/09/22 09:30:52;;;;;;;;;;;16.20;99.90;;;;;;5073196;28;20074;-52
2023/09/22 09:33:26;;;;;;;4.97;1.50;;;16.10;99.90;;;;;;5072700;28;19930;-49
2023/09/22 09:35:52;;;;;;;4.18;1.60;;;16.10;99.90;;;;;;5075835;28;20029;-52
2023/09/22 09:38:20;;;;;;;1.40;1.30;;;16.10;99.90;;;;;;5077080;28;20363;-52
2023/09/22 09:40:46;;;;;;;1.95;1.48;;;16.10;99.90;;;;;;5076834;28;20048;-53
2023/09/22 09:43:13;;;;;;;2.58;1.40;;;16.20;99.90;;;;;;5076610;28;20032;-50
2023/09/22 09:45:46;;;;;;;1.65;1.33;;;16.20;99.90;;;;;;5076679;28;20086;-51
2023/09/22 09:48:16;;;;;;;2.10;1.90;;;16.40;99.90;;;;;;5076592;28;20039;-56
2023/09/22 09:50:48;;;;;;;1.58;1.48;;;16.50;99.90;;;;;;5076568;28;20028;-54
2023/09/22 09:53:27;;;;;;;1.77;1.25;;;16.60;99.90;;;;;;5076568;28;20063;-54
2023/09/22 09:55:58;;;;;;;2.58;1.40;;;16.60;99.90;;;;;;5076558;28;20120;-50
2023/09/22 09:58:27;;;;;;;3.72;1.42;;;16.50;99.90;;;;;;5076556;28;20044;-53
2023/09/22 10:00:54;;;;;;;2.08;1.90;;;16.50;99.90;;;;;;5074940;28;20035;-53
2023/09/22 10:03:21;;;;;;;1.80;1.70;;;16.50;99.90;;;;;;5075039;28;20536;-53
2023/09/22 10:05:50;;;;;;;3.78;1.67;;;16.60;99.90;;;;;;5076569;28;20312;-52
2023/09/22 10:08:20;;;;;;;6.13;1.77;;;16.80;99.90;;;;;;5076476;28;20376;-53
2023/09/22 10:10:50;;;;;;;2.10;1.40;;;16.90;99.90;;;;;;5076397;28;20055;-54
2023/09/22 10:13:17;;;;;;;1.77;1.50;;;17.10;99.90;;;;;;5076315;28;20028;-52
2023/09/22 10:15:58;;;;;;;1.77;1.67;;;17.20;99.90;;;;;;5075925;28;20029;-51
2023/09/22 10:18:46;;;;;;;4.30;1.60;;;17.30;99.90;;;;;;5074798;28;20060;-51
2023/09/22 10:21:30;;;;;;;1.80;1.70;;;17.20;99.90;;;;;;5076011;28;20021;-52
2023/09/22 10:24:17;;;;;;;1.98;1.73;;;17.30;99.90;;;;;;5075744;28;20033;-53
2023/09/22 10:27:07;;;;;;;2.45;1.25;;;17.60;99.90;;;;;;5075818;28;20037;-53
2023/09/22 10:29:33;;;;;;;2.65;1.50;;;17.70;99.90;;;;;;5076186;28;20040;-35
2023/09/22 10:32:23;;;;;;;1.38;1.23;;;17.70;99.90;;;;;;5076027;28;20021;-39
2023/09/22 10:34:50;;;;;;;1.40;1.30;;;17.70;99.90;;;;;;5075776;28;20107;-39
2023/09/22 10:37:19;;;;;;;1.33;1.17;;;17.70;99.90;;;;;;5075603;28;20035;-38
2023/09/22 10:39:50;;;;;;;3.80;1.40;;;17.80;99.90;;;;;;5075604;28;20024;-37
2023/09/22 10:42:17;;;;;;;1.30;1.20;;;17.70;99.90;;;;;;5075589;28;20035;-39
2023/09/22 10:45:03;;;;;;;2.83;1.27;;;17.80;99.90;;;;;;5075513;28;20033;-42
2023/09/22 10:47:42;;;;;;;2.60;1.60;;;17.90;99.90;;;;;;5074805;28;20048;-38
2023/09/22 10:50:32;;;;;;;1.42;1.38;;;18.00;99.90;;;;;;5075495;28;20028;-38
2023/09/22 10:53:04;;;;;;;2.75;1.50;;;18.00;99.90;;;;;;5075589;28;20032;-36
2023/09/22 10:55:36;;;;;;;2.85;1.75;;;18.00;99.90;;;;;;5075601;28;20366;-38
2023/09/22 10:58:06;;;;;;;1.23;1.02;;;17.90;99.90;;;;;;5075034;28;20052;-39
2023/09/22 11:00:35;;;;;;;1.50;1.40;;;17.80;99.90;;;;;;5075252;28;20464;-37
2023/09/22 11:03:11;;;;;;;4.03;1.65;;;17.90;99.90;;;;;;5075157;28;20032;-37
2023/09/22 11:05:38;;;;;;;1.27;1.27;;;17.90;99.90;;;;;;5075446;28;20032;-39
2023/09/22 11:08:14;;;;;;;3.37;1.60;;;18.10;99.90;;;;;;5075186;28;20388;-38
2023/09/22 11:11:05;;;;;;;1.08;1.02;;;18.10;99.90;;;;;;5075116;28;20021;-36
2023/09/22 11:13:30;;;;;;;3.05;0.98;;;18.20;99.90;;;;;;5073818;28;20544;-36
2023/09/22 11:16:01;;;;;;;1.38;1.30;;;18.30;99.90;;;;;;5074961;28;20021;-38
2023/09/22 11:18:32;;;;;;;9.52;2.35;;;18.20;99.90;;;;;;5075041;28;20060;-37
2023/09/22 11:20:59;;;;;;;2.45;1.20;;;18.10;99.90;;;;;;5075181;28;20492;-36
2023/09/22 11:23:28;;;;;;;1.23;1.23;;;18.10;99.90;;;;;;5074752;28;20107;-37
2023/09/22 11:26:12;;;;;;;2.58;1.50;;;18.20;99.90;;;;;;5074753;28;20021;-37
2023/09/22 11:28:48;;;;;;;3.15;1.08;;;18.30;99.90;;;;;;5075026;28;20052;-37
2023/09/22 11:31:14;;;;;;;1.30;1.20;;;18.40;99.90;;;;;;5075028;28;20688;-37
2023/09/22 11:33:41;;;;;;;4.20;0.95;;;18.50;99.90;;;;;;5073268;28;20025;-37
2023/09/22 11:36:07;;;;;;;1.38;0.82;;;18.60;99.90;;;;;;5074781;28;20024;-38
2023/09/22 11:41:22;;;;;;;1.38;1.27;;;18.80;99.90;;;;;;5074804;28;20036;-35
2023/09/22 11:43:49;;;;;;;1.15;0.60;;;19.00;99.90;;;;;;5074669;28;20039;-53
2023/09/22 11:46:22;;;;;;;2.80;1.02;;;18.90;99.90;;;;;;5074383;28;20024;-53
2023/09/22 11:48:59;;;;;;;0.63;0.60;;;18.90;99.90;;;;;;5074679;28;20052;-53
2023/09/22 11:51:42;;;;;;;1.42;0.80;;;18.90;99.90;;;;;;5074266;28;20446;-51
2023/09/22 11:54:09;;;;;;;1.05;0.88;;;18.90;99.90;;;;;;5074223;28;20021;-51
2023/09/22 11:56:34;;;;;;;1.00;1.00;;;18.70;99.90;;;;;;5074014;28;20036;-52
2023/09/22 11:59:07;;;;;;;1.40;1.27;;;18.60;99.90;;;;;;5073156;28;20020;-59
2023/09/22 12:01:33;;;;;;;1.52;0.80;;;18.50;99.90;;;;;;5074247;28;20109;-51
2023/09/22 12:03:58;;;;;;;1.50;0.80;;;18.40;99.90;;;;;;5073968;28;20117;-53
2023/09/22 12:06:24;;;;;;;4.35;1.38;;;18.30;99.90;;;;;;5073919;28;20029;-52
2023/09/22 12:08:51;;;;;;;1.35;0.88;;;18.20;99.90;;;;;;5073966;28;20052;-53
2023/09/22 12:11:17;;;;;;;2.10;0.70;;;18.20;99.90;;;;;;5074139;28;20366;-53
2023/09/22 12:13:43;;;;;;;3.47;0.82;;;18.30;99.90;;;;;;5073843;28;20021;-51
2023/09/22 12:16:09;;;;;;;0.45;0.45;;;18.30;99.90;;;;;;5073708;28;20028;-53
2023/09/22 12:18:34;;;;;;;1.90;0.50;;;18.30;99.90;;;;;;5073782;28;20385;-49
2023/09/22 12:21:00;;;;;;;1.75;0.47;;;18.30;99.90;;;;;;5073941;28;20495;-48
2023/09/22 12:23:25;;;;;;;0.90;0.70;;;18.30;99.90;;;;;;5072344;28;20027;-53
2023/09/22 12:25:54;;;;;;;0.40;0.40;;;18.40;99.90;;;;;;5073492;28;20021;-54
2023/09/22 12:28:19;;;;;;;0.70;0.50;;;18.50;99.90;;;;;;5073536;28;20538;-54
2023/09/22 12:30:45;;;;;;;3.05;0.70;;;18.50;99.90;;;;;;5073443;28;20055;-52
2023/09/22 12:33:11;;;;;;;1.00;0.43;;;18.60;99.90;;;;;;5073688;28;20389;-52
2023/09/22 12:35:38;;;;;;;0.93;0.32;;;18.60;99.90;;;;;;5073709;28;20020;-49
2023/09/22 12:38:06;;;;;;;0.30;0.30;;;18.60;99.90;;;;;;5073328;28;20028;-53
2023/09/22 12:40:31;;;;;;;0.75;0.50;;;18.50;99.90;;;;;;5073543;28;20020;-53
2023/09/22 12:42:57;;;;;;;2.85;0.47;;;18.40;99.90;;;;;;5072966;28;20074;-53
2023/09/22 12:45:23;;;;;;;1.23;0.40;;;18.30;99.90;;;;;;5073051;28;20424;-52
2023/09/22 12:47:51;;;;;;;0.32;0.32;;;18.30;99.90;;;;;;5072985;28;20048;-54
2023/09/22 12:50:17;;;;;;;7.47;1.33;;;18.30;99.90;;;;;;5071807;28;20024;-51
2023/09/22 12:52:43;;;;;;;1.67;0.45;;;18.20;99.90;;;;;;5073126;28;20035;-51